Time;durP1;ratioP1;P1;durP2;ratioP2;P2;SDS_P1;SDS_P2;PMS_P1;PMS_P2;Temp;Humidity;BMP_temperature;BMP_pressure;BME280_temperature;BME280_humidity;BME280_pressure;Samples;Min_cycle;Max_cycle;Signal;HPM_P1;HPM_P2
2023/04/12 00:01:00;;;;;;;7.07;2.73;;;;;;;10.95;48.22;97462.78;8416217;28;20232;-68
2023/04/12 00:05:03;;;;;;;3.80;2.43;;;;;;;10.85;48.13;97458.19;8416164;28;20223;-68
2023/04/12 00:09:07;;;;;;;6.30;2.70;;;;;;;10.70;49.14;97460.69;8416029;28;20249;-68
2023/04/12 00:13:11;;;;;;;3.47;2.30;;;;;;;10.53;49.00;97450.38;8416129;28;20225;-68
2023/04/12 00:17:14;;;;;;;3.43;2.50;;;;;;;10.65;48.80;97447.13;8415932;28;20234;-68
2023/04/12 00:21:18;;;;;;;3.53;2.40;;;;;;;10.86;47.74;97441.72;8415175;28;20228;-68
2023/04/12 00:25:21;;;;;;;3.87;2.10;;;;;;;10.79;48.07;97442.97;8415670;28;20282;-68
2023/04/12 00:29:25;;;;;;;3.70;2.60;;;;;;;11.01;47.75;97427.94;8415142;28;20232;-67
2023/04/12 00:33:28;;;;;;;6.03;2.60;;;;;;;10.54;48.78;97429.56;8415559;28;20224;-67
2023/04/12 00:37:30;;;;;;;6.57;2.57;;;;;;;10.83;48.41;97410.81;8415249;28;20239;-68
2023/04/12 00:41:36;;;;;;;4.90;2.70;;;;;;;10.28;49.10;97404.19;8414806;28;20233;-68
2023/04/12 00:45:41;;;;;;;5.43;2.60;;;;;;;10.15;49.63;97378.13;8415222;28;20233;-68
2023/04/12 00:49:44;;;;;;;4.70;2.57;;;;;;;10.59;48.69;97394.84;8414950;28;20517;-68
2023/04/12 00:53:46;;;;;;;4.07;2.43;;;;;;;10.48;48.82;97398.00;8414871;28;20229;-68
2023/04/12 00:57:50;;;;;;;6.73;2.33;;;;;;;10.30;49.07;97390.28;8414286;28;20226;-68
2023/04/12 01:01:54;;;;;;;3.90;2.10;;;;;;;10.75;48.48;97382.72;8414426;28;20243;-68
2023/04/12 01:06:09;;;;;;;4.20;2.40;;;;;;;10.75;48.33;97383.56;8414537;28;20227;-68
2023/04/12 01:10:20;;;;;;;5.73;2.30;;;;;;;10.57;48.81;97372.44;8414017;28;20252;-68
2023/04/12 01:14:30;;;;;;;5.17;2.40;;;;;;;10.67;48.33;97366.78;8413811;28;20419;-67
2023/04/12 01:18:39;;;;;;;5.63;2.23;;;;;;;10.28;49.66;97363.63;8413957;28;20239;-68
2023/04/12 01:22:57;;;;;;;4.27;2.20;;;;;;;10.82;47.69;97339.22;8413773;28;20235;-68
2023/04/12 01:27:01;;;;;;;5.53;2.37;;;;;;;10.24;49.17;97359.50;8413480;28;20241;-68
2023/04/12 01:31:08;;;;;;;4.00;2.37;;;;;;;10.27;49.34;97356.75;8413564;28;20226;-68
2023/04/12 01:35:11;;;;;;;3.50;2.30;;;;;;;9.42;51.79;97360.22;8412731;28;20241;-68
2023/04/12 01:39:14;;;;;;;4.57;2.80;;;;;;;9.64;51.97;97356.59;8413272;28;20247;-68
2023/04/12 01:43:17;;;;;;;3.03;2.17;;;;;;;10.42;49.12;97352.56;8412886;28;20232;-68
2023/04/12 01:47:21;;;;;;;3.13;2.27;;;;;;;10.23;49.84;97355.25;8413011;28;20543;-68
2023/04/12 01:51:34;;;;;;;4.47;2.70;;;;;;;9.77;51.17;97348.13;8412552;28;20252;-67
2023/04/12 01:55:38;;;;;;;4.23;2.80;;;;;;;10.25;50.30;97329.31;8412682;28;20241;-67
2023/04/12 01:59:42;;;;;;;6.00;3.03;;;;;;;9.96;50.13;97336.84;8412496;28;20233;-68
2023/04/12 02:03:48;;;;;;;6.57;2.70;;;;;;;10.29;49.91;97318.69;8412597;28;20223;-67
2023/04/12 02:07:52;;;;;;;5.17;2.70;;;;;;;10.49;49.15;97315.09;8412523;28;20309;-68
2023/04/12 02:11:55;;;;;;;5.63;2.70;;;;;;;10.28;49.63;97309.28;8412574;28;20232;-68
2023/04/12 02:15:58;;;;;;;4.70;2.30;;;;;;;10.07;50.91;97303.50;8412394;28;20422;-68
2023/04/12 02:20:02;;;;;;;5.90;2.53;;;;;;;10.47;49.44;97301.38;8412396;28;20228;-68
2023/04/12 02:24:05;;;;;;;6.73;3.03;;;;;;;10.13;49.70;97292.81;8412188;28;20258;-68
2023/04/12 02:28:08;;;;;;;7.83;3.03;;;;;;;9.97;51.28;97282.44;8412071;28;20225;-69
2023/04/12 02:32:11;;;;;;;6.37;3.17;;;;;;;9.68;51.89;97278.78;8411874;28;20224;-69
2023/04/12 02:36:17;;;;;;;4.20;2.40;;;;;;;10.42;49.39;97282.69;8412017;28;20247;-69
2023/04/12 02:40:19;;;;;;;5.50;2.33;;;;;;;10.42;48.72;97280.09;8411500;28;20237;-68
2023/04/12 02:44:22;;;;;;;6.23;2.67;;;;;;;10.70;48.42;97282.00;8411022;28;20225;-67
2023/04/12 02:48:25;;;;;;;5.73;2.37;;;;;;;10.68;48.35;97278.66;8411839;28;20229;-68
2023/04/12 02:52:31;;;;;;;4.47;2.30;;;;;;;10.14;49.76;97267.78;8411563;28;20232;-68
2023/04/12 02:56:35;;;;;;;8.03;2.70;;;;;;;9.52;51.23;97259.78;8411546;28;20241;-68
2023/04/12 03:00:38;;;;;;;5.30;2.43;;;;;;;10.19;49.88;97268.38;8411619;28;20232;-68
2023/04/12 03:04:45;;;;;;;4.00;2.57;;;;;;;10.23;50.17;97254.34;8411389;28;20252;-68
2023/04/12 03:08:49;;;;;;;4.23;2.40;;;;;;;10.39;49.99;97245.78;8411362;28;20237;-68
2023/04/12 03:12:52;;;;;;;4.80;2.50;;;;;;;10.46;49.59;97239.34;8411223;28;20225;-69
2023/04/12 03:16:55;;;;;;;2.90;2.30;;;;;;;10.41;48.93;97238.75;8411088;28;20269;-68
2023/04/12 03:20:57;;;;;;;6.43;2.50;;;;;;;10.64;48.74;97234.88;8411153;28;20227;-69
2023/04/12 03:25:02;;;;;;;5.37;2.40;;;;;;;10.78;49.05;97234.94;8411087;28;20242;-69
2023/04/12 03:29:07;;;;;;;4.70;2.13;;;;;;;11.06;48.26;97217.81;8411208;28;20235;-69
2023/04/12 03:33:12;;;;;;;2.73;2.27;;;;;;;11.06;48.00;97218.66;8411072;28;20221;-69
2023/04/12 03:37:15;;;;;;;5.33;2.20;;;;;;;10.95;48.09;97219.28;8410976;28;20225;-69
2023/04/12 03:41:21;;;;;;;6.10;2.40;;;;;;;10.95;48.16;97223.63;8410540;28;20235;-69
2023/04/12 03:45:24;;;;;;;5.37;2.60;;;;;;;10.89;48.48;97216.19;8410394;28;20237;-69
2023/04/12 03:49:27;;;;;;;6.20;2.37;;;;;;;10.21;50.19;97209.59;8410888;28;20293;-68
2023/04/12 03:53:31;;;;;;;5.47;2.53;;;;;;;10.56;49.60;97194.72;8410664;28;20283;-68
2023/04/12 03:57:35;;;;;;;4.67;2.20;;;;;;;10.73;48.63;97203.28;8414246;28;20240;-69
2023/04/12 04:01:38;;;;;;;3.03;1.90;;;;;;;10.68;49.00;97202.69;8416510;28;20294;-70
2023/04/12 04:05:41;;;;;;;4.50;2.20;;;;;;;10.84;48.72;97185.38;8416535;28;20419;-69
2023/04/12 04:09:44;;;;;;;5.30;2.53;;;;;;;10.94;48.19;97178.72;8416328;28;20237;-68
2023/04/12 04:13:48;;;;;;;4.77;2.80;;;;;;;10.52;48.83;97176.84;8416006;28;20227;-69
2023/04/12 04:17:51;;;;;;;6.80;2.50;;;;;;;10.85;48.70;97181.03;8416060;28;20388;-69
2023/04/12 04:21:55;;;;;;;6.07;2.43;;;;;;;10.26;50.07;97168.78;8415993;28;20226;-69
2023/04/12 04:25:57;;;;;;;5.83;2.30;;;;;;;10.91;48.61;97160.78;8415686;28;20226;-70
2023/04/12 04:30:01;;;;;;;7.13;2.33;;;;;;;10.71;49.02;97166.28;8415789;28;20231;-70
2023/04/12 04:34:05;;;;;;;5.13;2.20;;;;;;;10.72;49.35;97152.44;8415607;28;20509;-69
2023/04/12 04:38:09;;;;;;;4.87;2.43;;;;;;;10.45;49.93;97155.69;8415294;28;20258;-70
2023/04/12 04:42:11;;;;;;;6.27;2.57;;;;;;;10.31;50.64;97148.66;8414574;28;20232;-69
2023/04/12 04:46:16;;;;;;;6.50;2.60;;;;;;;10.48;50.39;97154.66;8415004;28;20240;-70
2023/04/12 04:50:20;;;;;;;3.63;2.47;;;;;;;11.00;49.18;97151.63;8415252;28;20380;-70
2023/04/12 04:54:23;;;;;;;3.50;2.13;;;;;;;10.89;49.75;97151.44;8414349;28;20487;-70
2023/04/12 04:58:26;;;;;;;4.50;2.50;;;;;;;10.67;49.92;97141.50;8414659;28;20239;-69
2023/04/12 05:02:30;;;;;;;7.33;2.90;;;;;;;10.71;50.54;97151.56;8414789;28;20518;-69
2023/04/12 05:06:33;;;;;;;5.60;2.73;;;;;;;10.99;50.12;97149.16;8414219;28;20241;-69
2023/04/12 05:10:36;;;;;;;5.90;2.93;;;;;;;10.88;50.53;97137.66;8414268;28;20528;-69
2023/04/12 05:14:41;;;;;;;5.43;3.20;;;;;;;10.59;51.65;97121.22;8414379;28;20229;-69
2023/04/12 05:18:54;;;;;;;7.43;3.20;;;;;;;9.97;53.06;97131.56;8414001;28;20293;-70
2023/04/12 05:22:57;;;;;;;5.27;3.13;;;;;;;10.16;52.58;97116.69;8414220;28;20319;-70
2023/04/12 05:27:00;;;;;;;7.07;2.70;;;;;;;10.90;51.21;97115.06;8413928;28;20234;-69
2023/04/12 05:31:04;;;;;;;4.90;2.90;;;;;;;10.14;54.11;97109.94;8413796;28;20253;-69
2023/04/12 05:35:09;;;;;;;3.40;2.50;;;;;;;11.08;52.21;97105.38;8413723;28;20496;-69
2023/04/12 05:39:12;;;;;;;5.17;2.70;;;;;;;11.25;51.64;97108.69;8413279;28;20421;-69
2023/04/12 05:43:15;;;;;;;6.07;2.93;;;;;;;10.81;53.47;97113.03;8413320;28;20336;-69
2023/04/12 05:47:17;;;;;;;5.90;3.00;;;;;;;10.90;53.77;97096.13;8413285;28;20230;-69
2023/04/12 05:51:21;;;;;;;7.20;3.33;;;;;;;11.04;53.19;97090.09;8413339;28;20234;-70
2023/04/12 05:55:39;;;;;;;4.57;3.17;;;;;;;11.33;52.67;97096.13;8412472;28;20225;-70
2023/04/12 05:59:42;;;;;;;5.57;2.90;;;;;;;10.98;54.49;97098.25;8412871;28;20240;-70
2023/04/12 06:03:45;;;;;;;7.70;3.47;;;;;;;10.88;55.63;97085.03;8412610;28;20226;-70
2023/04/12 06:07:50;;;;;;;5.87;2.80;;;;;;;11.01;55.47;97077.34;8412686;28;20222;-70
2023/04/12 06:11:53;;;;;;;6.53;3.10;;;;;;;10.46;57.23;97060.72;8412508;28;20238;-71
2023/04/12 06:15:55;;;;;;;4.97;3.10;;;;;;;10.40;59.09;97055.91;8412330;28;20247;-71
2023/04/12 06:19:58;;;;;;;6.03;3.27;;;;;;;10.60;59.29;97059.91;8411691;28;20420;-71
2023/04/12 06:24:03;;;;;;;11.00;4.07;;;;;;;10.33;60.45;97051.06;8412333;28;20221;-70
2023/04/12 06:28:06;;;;;;;8.37;4.43;;;;;;;10.37;60.91;97054.31;8412005;28;20518;-69
2023/04/12 06:32:09;;;;;;;4.07;3.10;;;;;;;10.72;60.47;97046.25;8412095;28;20230;-70
2023/04/12 06:36:14;;;;;;;5.60;3.60;;;;;;;10.51;61.34;97038.00;8412304;28;20238;-70
2023/04/12 06:40:18;;;;;;;3.40;3.00;;;;;;;10.53;61.55;97028.41;8412267;28;20243;-69
2023/04/12 06:44:21;;;;;;;5.00;3.17;;;;;;;10.55;61.44;97017.00;8411937;28;20518;-70
2023/04/12 06:48:24;;;;;;;4.93;3.00;;;;;;;10.55;62.17;97037.72;8411223;28;20227;-69
2023/04/12 06:52:27;;;;;;;4.03;3.00;;;;;;;10.70;61.88;97025.63;8411986;28;20225;-70
2023/04/12 06:56:31;;;;;;;2.93;2.63;;;;;;;10.42;63.42;97010.06;8411695;28;20234;-70
2023/04/12 07:00:34;;;;;;;3.53;2.60;;;;;;;10.70;61.64;97015.28;8411353;28;20241;-70
2023/04/12 07:04:37;;;;;;;4.27;2.70;;;;;;;9.88;64.80;96985.53;8411029;28;20239;-69
2023/04/12 07:08:40;;;;;;;3.57;2.90;;;;;;;10.50;63.14;97000.09;8410987;28;20445;-69
2023/04/12 07:12:44;;;;;;;3.90;3.13;;;;;;;10.59;63.50;97002.13;8411286;28;20245;-69
2023/04/12 07:16:47;;;;;;;3.10;2.40;;;;;;;10.56;63.32;96995.34;8411357;28;20284;-70
2023/04/12 07:20:54;;;;;;;2.87;2.50;;;;;;;10.27;64.87;96988.47;8411266;28;20307;-69
2023/04/12 07:24:57;;;;;;;3.27;2.70;;;;;;;10.36;64.08;96975.03;8411327;28;20407;-70
2023/04/12 07:29:01;;;;;;;5.87;2.97;;;;;;;11.40;76.34;96978.16;8411127;28;20232;-73
2023/04/12 07:33:04;;;;;;;6.83;2.67;;;;;;;13.01;71.74;96976.19;8416446;28;20239;-72
2023/04/12 07:37:21;;;;;;;4.87;2.40;;;;;;;10.92;64.10;96967.34;8417438;28;20577;-70
2023/04/12 07:41:23;;;;;;;1.90;1.77;;;;;;;11.14;62.01;96961.66;8416610;28;20227;-69
2023/04/12 07:45:28;;;;;;;3.87;1.70;;;;;;;11.10;62.58;96963.63;8417346;28;20398;-70
2023/04/12 07:49:30;;;;;;;1.83;1.73;;;;;;;11.17;62.41;96953.69;8417251;28;20426;-70
2023/04/12 07:53:33;;;;;;;3.37;2.00;;;;;;;10.81;63.92;96949.03;8416832;28;20232;-70
2023/04/12 07:57:36;;;;;;;2.63;2.00;;;;;;;11.14;63.01;96946.94;8416716;28;20244;-71
2023/04/12 08:01:41;;;;;;;2.20;1.83;;;;;;;10.94;63.66;96947.34;8416663;28;20239;-70
2023/04/12 08:05:44;;;;;;;2.13;1.87;;;;;;;10.52;65.68;96905.88;8416651;28;20223;-70
2023/04/12 08:09:47;;;;;;;2.83;1.80;;;;;;;10.89;64.89;96915.72;8416277;28;20229;-70
2023/04/12 08:13:49;;;;;;;1.90;1.80;;;;;;;10.99;64.53;96922.00;8416261;28;20245;-70
2023/04/12 08:17:54;;;;;;;2.40;1.90;;;;;;;10.83;63.40;96882.44;8416031;28;20218;-70
2023/04/12 08:21:56;;;;;;;2.20;2.00;;;;;;;11.06;64.05;96912.94;8415899;28;20238;-71
2023/04/12 08:26:02;;;;;;;2.17;1.90;;;;;;;10.76;64.94;96889.78;8416100;28;20423;-70
2023/04/12 08:30:07;;;;;;;2.70;1.93;;;;;;;10.83;64.26;96848.75;8415968;28;20229;-70
2023/04/12 08:34:11;;;;;;;2.87;1.90;;;;;;;11.34;64.61;96904.19;8415779;28;20239;-71
2023/04/12 08:38:13;;;;;;;2.43;1.80;;;;;;;11.40;63.95;96896.97;8415665;28;20522;-70
2023/04/12 08:42:17;;;;;;;3.83;2.23;;;;;;;11.06;64.72;96891.34;8414802;28;20244;-71
2023/04/12 08:46:19;;;;;;;2.30;1.73;;;;;;;11.03;65.48;96876.84;8415556;28;20232;-71
2023/04/12 08:50:25;;;;;;;1.97;1.77;;;;;;;11.82;63.48;96887.31;8414831;28;20222;-70
2023/04/12 08:54:27;;;;;;;2.00;1.60;;;;;;;11.30;65.51;96870.81;8414952;28;20232;-71
2023/04/12 08:58:31;;;;;;;1.83;1.73;;;;;;;11.62;64.14;96857.53;8415146;28;20256;-71
2023/04/12 09:02:35;;;;;;;1.47;1.37;;;;;;;11.84;63.73;96854.31;8414576;28;20239;-71
2023/04/12 09:06:40;;;;;;;1.80;1.70;;;;;;;11.66;64.88;96852.00;8414470;28;20229;-71
2023/04/12 09:10:43;;;;;;;2.20;2.00;;;;;;;11.17;65.46;96828.47;8414905;28;20232;-71
2023/04/12 09:14:46;;;;;;;1.97;1.60;;;;;;;11.44;65.13;96834.47;8414359;28;20235;-71
2023/04/12 09:18:50;;;;;;;1.63;1.53;;;;;;;11.03;66.12;96819.00;8414213;28;20227;-71
2023/04/12 09:22:55;;;;;;;1.67;1.57;;;;;;;10.87;66.87;96812.22;8413868;28;20232;-71
2023/04/12 09:27:02;;;;;;;1.77;1.60;;;;;;;10.99;66.76;96809.78;8414048;28;20536;-72
2023/04/12 09:31:16;;;;;;;1.87;1.77;;;;;;;10.92;67.38;96798.97;8413817;28;20244;-71
2023/04/12 09:35:33;;;;;;;1.87;1.70;;;;;;;11.11;67.24;96791.66;8413812;28;20586;-71
2023/04/12 09:39:38;;;;;;;1.57;1.47;;;;;;;11.69;65.47;96784.38;8412924;28;20235;-70
2023/04/12 09:43:42;;;;;;;1.50;1.40;;;;;;;10.93;67.79;96770.38;8413554;28;20275;-71
2023/04/12 09:47:45;;;;;;;1.60;1.50;;;;;;;11.35;66.82;96771.09;8413774;28;20225;-71
2023/04/12 09:51:51;;;;;;;1.60;1.50;;;;;;;11.09;68.04;96766.78;8413416;28;20569;-71
2023/04/12 09:55:56;;;;;;;1.50;1.40;;;;;;;11.09;67.25;96764.22;8412460;28;20393;-72
2023/04/12 10:00:01;;;;;;;1.73;1.57;;;;;;;11.18;67.68;96752.41;8413156;28;20238;-71
2023/04/12 10:04:05;;;;;;;1.93;1.60;;;;;;;11.01;68.80;96748.34;8412889;28;20510;-71
2023/04/12 10:08:11;;;;;;;1.90;1.80;;;;;;;10.93;68.92;96744.50;8412814;28;20260;-71
2023/04/12 10:12:16;;;;;;;2.10;1.90;;;;;;;11.34;67.69;96742.69;8412935;28;20526;-72
2023/04/12 10:16:20;;;;;;;2.53;1.80;;;;;;;11.09;68.68;96735.72;8412869;28;20522;-71
2023/04/12 10:20:24;;;;;;;2.67;2.00;;;;;;;11.08;69.05;96727.13;8411901;28;20234;-70
2023/04/12 10:24:31;;;;;;;2.00;1.90;;;;;;;10.96;69.58;96725.31;8412423;28;20249;-71
2023/04/12 10:28:36;;;;;;;2.00;1.80;;;;;;;11.03;69.97;96705.84;8412545;28;20242;-72
2023/04/12 10:32:39;;;;;;;1.90;1.80;;;;;;;11.21;68.46;96710.75;8412329;28;20237;-71
2023/04/12 10:36:51;;;;;;;1.93;1.73;;;;;;;10.60;71.84;96700.88;8412846;28;20233;-72
2023/04/12 10:41:10;;;;;;;3.03;1.70;;;;;;;10.96;69.19;96694.22;8412139;28;20424;-73
2023/04/12 10:45:39;;;;;;;2.00;1.70;;;;;;;11.08;69.20;96682.22;8411060;28;20382;-70
2023/04/12 10:50:20;;;;;;;2.23;2.07;;;;;;;11.33;69.23;96677.06;8407128;28;20253;-71
2023/04/12 10:54:34;;;;;;;1.80;1.70;;;;;;;11.59;68.54;96681.38;8411078;28;20262;-69
2023/04/12 10:59:00;;;;;;;1.77;1.67;;;;;;;11.34;68.57;96667.50;8411766;28;20533;-71
2023/04/12 11:03:10;;;;;;;3.33;2.10;;;;;;;11.27;69.75;96674.03;8411605;28;20233;-71
2023/04/12 11:07:14;;;;;;;2.83;2.40;;;;;;;11.58;68.67;96651.22;8417289;28;20237;-71
2023/04/12 11:11:21;;;;;;;3.07;2.77;;;;;;;11.09;70.42;96665.75;8418504;28;20258;-70
2023/04/12 11:15:26;;;;;;;2.73;2.53;;;;;;;11.70;68.70;96677.13;8418040;28;20238;-70
2023/04/12 11:19:32;;;;;;;2.97;2.77;;;;;;;11.62;68.96;96653.50;8418157;28;20257;-70
2023/04/12 11:23:35;;;;;;;3.10;2.80;;;;;;;11.69;69.26;96653.88;8417861;28;20232;-70
2023/04/12 11:27:38;;;;;;;2.83;2.60;;;;;;;11.74;68.38;96651.78;8417984;28;20397;-70
2023/04/12 11:31:41;;;;;;;3.40;3.20;;;;;;;11.48;70.41;96649.25;8417779;28;20235;-70
2023/04/12 11:35:46;;;;;;;4.07;3.10;;;;;;;11.98;70.12;96644.09;8417344;28;20410;-70
2023/04/12 11:39:51;;;;;;;3.80;3.50;;;;;;;11.75;69.74;96627.53;8417589;28;20231;-70
2023/04/12 11:43:54;;;;;;;3.40;3.00;;;;;;;12.31;68.86;96627.84;8417232;28;20308;-70
2023/04/12 11:47:58;;;;;;;3.43;3.13;;;;;;;12.17;69.69;96617.66;8417344;28;20232;-70
2023/04/12 11:52:03;;;;;;;3.60;3.30;;;;;;;11.98;69.73;96604.34;8416849;28;20232;-70
2023/04/12 11:56:07;;;;;;;3.40;3.10;;;;;;;11.59;71.50;96596.66;8417009;28;20232;-70
2023/04/12 12:00:11;;;;;;;2.57;2.37;;;;;;;12.09;70.15;96600.03;8416532;28;20223;-71
2023/04/12 12:04:14;;;;;;;2.73;2.50;;;;;;;11.99;70.83;96599.03;8416476;28;20227;-70
2023/04/12 12:08:19;;;;;;;3.07;2.47;;;;;;;12.18;70.73;96597.72;8416529;28;20224;-72
2023/04/12 12:12:23;;;;;;;2.50;2.27;;;;;;;12.65;71.60;96596.81;8416391;28;20236;-73
2023/04/12 12:16:27;;;;;;;1.93;1.73;;;;;;;12.43;68.96;96589.81;8414816;28;20542;-72
2023/04/12 12:20:30;;;;;;;1.80;1.70;;;;;;;12.69;68.51;96576.63;8416229;28;20228;-72
2023/04/12 12:24:35;;;;;;;2.10;1.90;;;;;;;12.29;68.97;96580.41;8416353;28;20243;-69
2023/04/12 12:28:43;;;;;;;3.30;2.37;;;;;;;11.94;70.74;96536.28;8416038;28;20228;-70
2023/04/12 12:32:47;;;;;;;2.20;2.00;;;;;;;12.11;70.78;96553.22;8415809;28;20220;-70
2023/04/12 12:36:55;;;;;;;2.23;2.07;;;;;;;12.69;68.79;96548.06;8415517;28;20277;-70
2023/04/12 12:40:59;;;;;;;2.50;2.27;;;;;;;12.60;70.41;96544.38;8415543;28;20229;-70
2023/04/12 12:45:03;;;;;;;2.70;2.33;;;;;;;12.55;70.10;96538.72;8415536;28;20228;-71
2023/04/12 12:49:06;;;;;;;2.20;2.00;;;;;;;12.68;69.76;96542.06;8415124;28;20227;-71
2023/04/12 12:53:09;;;;;;;2.50;2.10;;;;;;;12.57;70.49;96533.44;8415152;28;20379;-71
2023/04/12 12:57:13;;;;;;;2.33;2.13;;;;;;;12.43;70.74;96524.06;8415005;28;20228;-71
2023/04/12 13:01:16;;;;;;;2.40;2.20;;;;;;;13.00;69.40;96545.72;8414885;28;20265;-71
2023/04/12 13:05:20;;;;;;;2.77;2.57;;;;;;;13.15;68.98;96539.34;8414753;28;20220;-71
2023/04/12 13:09:23;;;;;;;4.53;2.80;;;;;;;12.88;70.29;96527.53;8414080;28;20398;-70
2023/04/12 13:13:27;;;;;;;3.10;2.80;;;;;;;12.71;71.78;96520.22;8414273;28;20434;-69
2023/04/12 13:17:30;;;;;;;2.87;2.60;;;;;;;12.92;70.57;96512.53;8414491;28;20228;-71
2023/04/12 13:21:33;;;;;;;2.60;2.40;;;;;;;13.11;69.44;96501.56;8414237;28;20532;-71
2023/04/12 13:25:36;;;;;;;3.13;2.80;;;;;;;13.31;69.68;96505.25;8414568;28;20244;-71
2023/04/12 13:29:40;;;;;;;3.77;2.93;;;;;;;13.13;70.05;96494.47;8413962;28;20235;-71
2023/04/12 13:33:43;;;;;;;3.20;2.77;;;;;;;13.23;69.75;96491.97;8414015;28;20228;-71
2023/04/12 13:37:45;;;;;;;3.07;2.83;;;;;;;13.27;69.72;96477.81;8413962;28;20224;-72
2023/04/12 13:41:49;;;;;;;2.93;2.70;;;;;;;13.33;69.15;96482.53;8413527;28;20227;-71
2023/04/12 13:45:53;;;;;;;3.30;3.10;;;;;;;13.18;70.39;96474.16;8413407;28;20488;-71
2023/04/12 13:49:56;;;;;;;3.30;3.00;;;;;;;13.24;70.40;96484.06;8413338;28;20560;-71
2023/04/12 13:53:59;;;;;;;3.47;3.17;;;;;;;13.32;69.73;96480.88;8413422;28;20239;-71
2023/04/12 13:58:02;;;;;;;3.50;3.20;;;;;;;13.05;71.17;96458.69;8413062;28;20228;-71
2023/04/12 14:02:06;;;;;;;3.33;3.03;;;;;;;13.54;69.78;96461.81;8413046;28;20233;-71
2023/04/12 14:06:09;;;;;;;3.53;3.23;;;;;;;13.58;68.99;96470.19;8412701;28;20244;-71
2023/04/12 14:10:12;;;;;;;3.50;3.20;;;;;;;13.68;69.03;96453.69;8412986;28;20224;-71
2023/04/12 14:14:15;;;;;;;3.70;3.40;;;;;;;13.65;69.53;96459.16;8413002;28;20559;-71
2023/04/12 14:18:20;;;;;;;5.07;4.57;;;;;;;13.63;69.47;96448.06;8412768;28;20229;-71
2023/04/12 14:22:23;;;;;;;3.80;3.50;;;;;;;13.73;68.58;96442.94;8412229;28;20256;-71
2023/04/12 14:26:26;;;;;;;4.17;3.20;;;;;;;13.67;69.19;96428.66;8412636;28;20422;-71
2023/04/12 14:30:29;;;;;;;4.10;3.80;;;;;;;13.66;69.15;96431.38;8412565;28;20236;-70
2023/04/12 14:34:33;;;;;;;4.23;3.83;;;;;;;13.35;70.32;96427.81;8412311;28;20230;-71
2023/04/12 14:38:36;;;;;;;4.50;4.10;;;;;;;13.51;70.15;96433.44;8412504;28;20282;-70
2023/04/12 14:42:40;;;;;;;3.60;3.30;;;;;;;13.95;69.60;96423.78;8412017;28;20237;-72
2023/04/12 14:46:43;;;;;;;4.47;4.07;;;;;;;14.12;68.56;96417.16;8412082;28;20242;-72
2023/04/12 14:50:47;;;;;;;4.17;3.60;;;;;;;14.42;67.29;96405.97;8411918;28;20220;-71
2023/04/12 14:54:50;;;;;;;3.80;3.50;;;;;;;14.85;65.79;96398.91;8411790;28;20533;-71
2023/04/12 14:58:54;;;;;;;3.93;3.60;;;;;;;14.70;66.43;96397.59;8411924;28;20227;-71
2023/04/12 15:02:59;;;;;;;3.93;3.53;;;;;;;14.65;66.01;96390.19;8411640;28;20235;-72
2023/04/12 15:07:04;;;;;;;3.60;3.30;;;;;;;14.59;66.57;96401.97;8411375;28;20253;-71
2023/04/12 15:11:09;;;;;;;2.80;2.60;;;;;;;14.90;65.38;96391.50;8411489;28;20236;-72
2023/04/12 15:15:12;;;;;;;4.17;3.37;;;;;;;15.16;63.75;96388.41;8411434;28;20429;-72
2023/04/12 15:19:15;;;;;;;6.93;6.23;;;;;;;15.10;63.08;96376.72;8411411;28;20443;-72
2023/04/12 15:23:25;;;;;;;3.13;2.93;;;;;;;15.24;62.66;96378.94;8411215;28;20232;-70
2023/04/12 15:27:29;;;;;;;3.03;2.70;;;;;;;15.39;61.66;96371.53;8410982;28;20240;-71
2023/04/12 15:31:32;;;;;;;2.53;2.30;;;;;;;15.37;61.33;96370.03;8411164;28;20234;-71
2023/04/12 15:35:36;;;;;;;2.83;2.23;;;;;;;15.62;60.40;96366.84;8411188;28;20241;-71
2023/04/12 15:39:41;;;;;;;2.20;2.10;;;;;;;15.83;59.96;96358.91;8411123;28;20235;-71
2023/04/12 15:43:48;;;;;;;2.37;2.17;;;;;;;16.10;58.29;96352.13;8410770;28;20399;-71
2023/04/12 15:47:53;;;;;;;2.47;2.03;;;;;;;15.74;59.72;96353.69;8410902;28;20230;-72
2023/04/12 15:51:56;;;;;;;2.80;2.37;;;;;;;16.02;59.71;96342.38;8412455;28;20235;-70
2023/04/12 15:56:03;;;;;;;4.07;2.10;;;;;;;15.53;60.22;96351.22;8417080;28;20230;-72
2023/04/12 16:00:19;;;;;;;2.33;2.23;;;;;;;15.82;58.84;96346.84;8417040;28;20292;-74
2023/04/12 16:04:22;;;;;;;2.70;2.17;;;;;;;15.70;59.49;96331.44;8416100;28;20595;-72
2023/04/12 16:08:26;;;;;;;2.20;2.00;;;;;;;15.55;60.29;96344.88;8416410;28;20220;-72
2023/04/12 16:12:30;;;;;;;2.57;2.20;;;;;;;15.48;60.61;96343.81;8416607;28;20232;-72
2023/04/12 16:16:33;;;;;;;2.00;1.80;;;;;;;15.44;61.65;96345.06;8416472;28;20236;-72
2023/04/12 16:20:36;;;;;;;2.33;2.10;;;;;;;15.37;62.71;96342.16;8416059;28;20256;-72
2023/04/12 16:24:39;;;;;;;3.57;2.70;;;;;;;15.09;62.63;96333.34;8415980;28;20243;-72
2023/04/12 16:28:43;;;;;;;2.20;2.07;;;;;;;15.05;63.83;96351.06;8416080;28;20554;-72
2023/04/12 16:32:47;;;;;;;2.50;2.13;;;;;;;15.14;63.46;96356.44;8416060;28;20230;-71
2023/04/12 16:36:51;;;;;;;2.13;2.03;;;;;;;14.90;64.16;96347.19;8415828;28;20223;-72
2023/04/12 16:40:54;;;;;;;2.27;1.63;;;;;;;14.62;63.57;96347.00;8415650;28;20242;-72
2023/04/12 16:45:01;;;;;;;1.80;1.60;;;;;;;14.81;63.85;96342.78;8415632;28;20424;-72
2023/04/12 16:49:05;;;;;;;1.70;1.60;;;;;;;14.90;63.89;96362.00;8415566;28;20234;-72
2023/04/12 16:53:08;;;;;;;3.30;1.90;;;;;;;14.85;65.17;96391.09;8415208;28;20230;-73
2023/04/12 16:57:10;;;;;;;1.10;0.80;;;;;;;13.53;66.23;96423.72;8415536;28;20438;-71
2023/04/12 17:01:15;;;;;;;1.83;1.20;;;;;;;13.84;63.91;96403.00;8415182;28;20513;-71
2023/04/12 17:05:28;;;;;;;2.53;0.60;;;;;;;14.05;63.41;96351.81;8414381;28;20238;-71
2023/04/12 17:09:37;;;;;;;0.93;0.70;;;;;;;14.07;63.85;96388.94;8414157;28;20513;-70
2023/04/12 17:13:45;;;;;;;1.37;0.93;;;;;;;14.21;63.33;96371.34;8414827;28;20240;-72
2023/04/12 17:17:52;;;;;;;1.90;1.10;;;;;;;14.07;63.44;96378.53;8414681;28;20230;-72
2023/04/12 17:21:56;;;;;;;0.70;0.60;;;;;;;14.00;63.67;96376.56;8413888;28;20225;-71
2023/04/12 17:26:01;;;;;;;2.20;1.10;;;;;;;14.16;63.02;96370.88;8414344;28;20602;-72
2023/04/12 17:30:06;;;;;;;1.30;0.43;;;;;;;14.30;62.82;96372.31;8414070;28;20227;-71
2023/04/12 17:34:11;;;;;;;0.30;0.30;;;;;;;14.24;62.82;96363.25;8414263;28;20421;-71
2023/04/12 17:38:19;;;;;;;0.60;0.40;;;;;;;14.20;63.17;96367.06;8413548;28;20580;-72
2023/04/12 17:42:25;;;;;;;1.63;0.50;;;;;;;14.15;63.24;96388.28;8412386;28;20538;-71
2023/04/12 17:46:29;;;;;;;1.87;0.30;;;;;;;14.20;62.62;96400.91;8413560;28;20513;-72
2023/04/12 17:50:34;;;;;;;1.10;0.43;;;;;;;14.20;62.87;96393.94;8413325;28;20434;-72
2023/04/12 17:54:38;;;;;;;0.57;0.40;;;;;;;13.84;63.37;96403.00;8413194;28;20252;-72
2023/04/12 17:58:41;;;;;;;0.30;0.30;;;;;;;13.88;63.01;96413.06;8413190;28;20242;-73
2023/04/12 18:02:45;;;;;;;0.70;0.50;;;;;;;13.75;62.80;96414.19;8412758;28;20251;-72
2023/04/12 18:06:51;;;;;;;0.50;0.50;;;;;;;13.71;63.12;96417.97;8412796;28;20421;-72
2023/04/12 18:10:59;;;;;;;1.17;0.60;;;;;;;13.81;62.57;96414.50;8412821;28;20222;-72
2023/04/12 18:15:03;;;;;;;1.17;0.80;;;;;;;13.70;63.07;96417.16;8411870;28;20543;-72
2023/04/12 18:19:07;;;;;;;2.10;0.60;;;;;;;13.61;62.68;96434.34;8412093;28;20305;-72
2023/04/12 18:23:13;;;;;;;1.30;1.30;;;;;;;13.69;62.61;96442.34;8411006;28;20229;-71
2023/04/12 18:27:19;;;;;;;2.87;1.17;;;;;;;15.07;73.45;96442.16;8411686;28;20324;-73
2023/04/12 18:31:26;;;;;;;3.17;0.90;;;;;;;15.35;67.45;96461.47;8411516;28;20236;-72
2023/04/12 18:35:30;;;;;;;1.07;0.87;;;;;;;15.73;61.36;96461.66;8412090;28;20234;-73
2023/04/12 18:39:37;;;;;;;2.17;0.87;;;;;;;16.09;59.86;96461.91;8412115;28;20420;-73
2023/04/12 18:43:41;;;;;;;2.07;1.97;;;;;;;15.05;57.34;96468.38;8411742;28;20585;-70
2023/04/12 18:47:44;;;;;;;1.70;1.60;;;;;;;14.48;59.13;96474.94;8411882;28;20416;-71
2023/04/12 18:51:48;;;;;;;2.47;2.13;;;;;;;14.42;59.70;96501.50;8411864;28;20433;-71
2023/04/12 18:55:52;;;;;;;1.03;0.73;;;;;;;14.05;60.16;96522.75;8411604;28;20235;-71
2023/04/12 19:00:04;;;;;;;0.50;0.50;;;;;;;14.06;59.54;96520.03;8411574;28;20224;-72
2023/04/12 19:04:10;;;;;;;0.77;0.60;;;;;;;13.76;61.37;96535.50;8411668;28;20309;-71
2023/04/12 19:08:13;;;;;;;0.70;0.60;;;;;;;13.89;60.70;96524.00;8411442;28;20547;-71
2023/04/12 19:12:19;;;;;;;3.10;1.77;;;;;;;13.74;60.81;96519.19;8411372;28;20237;-71